sensor_id;sensor_type;location;lat;lon;timestamp;P1;durP1;ratioP1;P2;durP2;ratioP2
54454;SDS011;40364;52.270;10.546;2023-05-08T00:00:13;7.32;;;5.60;;
54454;SDS011;40364;52.270;10.546;2023-05-08T00:02:42;8.32;;;5.53;;
54454;SDS011;40364;52.270;10.546;2023-05-08T00:05:08;7.53;;;5.60;;
54454;SDS011;40364;52.270;10.546;2023-05-08T00:07:35;8.27;;;5.35;;
54454;SDS011;40364;52.270;10.546;2023-05-08T00:10:02;6.95;;;5.10;;
54454;SDS011;40364;52.270;10.546;2023-05-08T00:12:29;7.85;;;5.53;;
54454;SDS011;40364;52.270;10.546;2023-05-08T00:14:56;8.80;;;5.72;;
54454;SDS011;40364;52.270;10.546;2023-05-08T00:17:22;8.27;;;5.75;;
54454;SDS011;40364;52.270;10.546;2023-05-08T00:19:50;7.88;;;5.90;;
54454;SDS011;40364;52.270;10.546;2023-05-08T00:22:17;7.80;;;6.35;;
54454;SDS011;40364;52.270;10.546;2023-05-08T00:24:44;8.88;;;5.90;;
54454;SDS011;40364;52.270;10.546;2023-05-08T00:27:11;8.40;;;5.95;;
54454;SDS011;40364;52.270;10.546;2023-05-08T00:29:37;8.27;;;5.63;;
54454;SDS011;40364;52.270;10.546;2023-05-08T00:32:05;8.68;;;5.75;;
54454;SDS011;40364;52.270;10.546;2023-05-08T00:34:31;9.93;;;6.60;;
54454;SDS011;40364;52.270;10.546;2023-05-08T00:36:59;7.90;;;5.68;;
54454;SDS011;40364;52.270;10.546;2023-05-08T00:39:27;9.95;;;6.13;;
54454;SDS011;40364;52.270;10.546;2023-05-08T00:41:53;8.20;;;6.07;;
54454;SDS011;40364;52.270;10.546;2023-05-08T00:44:20;8.85;;;6.25;;
54454;SDS011;40364;52.270;10.546;2023-05-08T00:46:47;8.80;;;6.30;;
54454;SDS011;40364;52.270;10.546;2023-05-08T00:49:14;9.88;;;6.32;;
54454;SDS011;40364;52.270;10.546;2023-05-08T00:51:41;9.68;;;6.80;;
54454;SDS011;40364;52.270;10.546;2023-05-08T00:54:10;9.52;;;6.53;;
54454;SDS011;40364;52.270;10.546;2023-05-08T00:56:37;8.23;;;6.00;;
54454;SDS011;40364;52.270;10.546;2023-05-08T00:59:06;8.20;;;6.10;;
54454;SDS011;40364;52.270;10.546;2023-05-08T01:01:35;10.52;;;6.32;;
54454;SDS011;40364;52.270;10.546;2023-05-08T01:04:02;7.55;;;5.95;;
54454;SDS011;40364;52.270;10.546;2023-05-08T01:06:29;10.75;;;6.63;;
54454;SDS011;40364;52.270;10.546;2023-05-08T01:08:57;8.32;;;6.15;;
54454;SDS011;40364;52.270;10.546;2023-05-08T01:11:39;8.48;;;6.53;;
54454;SDS011;40364;52.270;10.546;2023-05-08T01:14:14;10.13;;;7.00;;
54454;SDS011;40364;52.270;10.546;2023-05-08T01:16:48;9.23;;;6.78;;
54454;SDS011;40364;52.270;10.546;2023-05-08T01:19:45;11.27;;;6.80;;
54454;SDS011;40364;52.270;10.546;2023-05-08T01:22:37;11.80;;;6.32;;
54454;SDS011;40364;52.270;10.546;2023-05-08T01:25:45;9.50;;;6.70;;
54454;SDS011;40364;52.270;10.546;2023-05-08T01:28:47;9.13;;;6.85;;
54454;SDS011;40364;52.270;10.546;2023-05-08T01:31:36;9.40;;;6.75;;
54454;SDS011;40364;52.270;10.546;2023-05-08T01:34:19;11.25;;;7.10;;
54454;SDS011;40364;52.270;10.546;2023-05-08T01:36:49;10.05;;;6.50;;
54454;SDS011;40364;52.270;10.546;2023-05-08T01:39:20;12.13;;;6.57;;
54454;SDS011;40364;52.270;10.546;2023-05-08T01:41:55;10.77;;;7.05;;
54454;SDS011;40364;52.270;10.546;2023-05-08T01:44:33;11.48;;;6.78;;
54454;SDS011;40364;52.270;10.546;2023-05-08T01:47:04;10.73;;;6.75;;
54454;SDS011;40364;52.270;10.546;2023-05-08T01:49:36;9.30;;;6.85;;
54454;SDS011;40364;52.270;10.546;2023-05-08T01:52:08;9.10;;;6.72;;
54454;SDS011;40364;52.270;10.546;2023-05-08T01:54:40;13.32;;;7.25;;
54454;SDS011;40364;52.270;10.546;2023-05-08T01:57:09;10.70;;;6.30;;
54454;SDS011;40364;52.270;10.546;2023-05-08T01:59:39;13.13;;;6.80;;
54454;SDS011;40364;52.270;10.546;2023-05-08T02:02:08;9.77;;;7.00;;
54454;SDS011;40364;52.270;10.546;2023-05-08T02:04:38;10.95;;;7.18;;
54454;SDS011;40364;52.270;10.546;2023-05-08T02:07:06;9.88;;;6.60;;
54454;SDS011;40364;52.270;10.546;2023-05-08T02:09:33;9.43;;;6.65;;
54454;SDS011;40364;52.270;10.546;2023-05-08T02:12:00;10.05;;;6.97;;
54454;SDS011;40364;52.270;10.546;2023-05-08T02:14:29;10.15;;;6.93;;
54454;SDS011;40364;52.270;10.546;2023-05-08T02:16:57;9.52;;;6.13;;
54454;SDS011;40364;52.270;10.546;2023-05-08T02:19:27;8.90;;;6.03;;
54454;SDS011;40364;52.270;10.546;2023-05-08T02:21:57;9.23;;;5.63;;
54454;SDS011;40364;52.270;10.546;2023-05-08T02:24:24;9.15;;;5.82;;
54454;SDS011;40364;52.270;10.546;2023-05-08T02:26:51;7.82;;;5.82;;
54454;SDS011;40364;52.270;10.546;2023-05-08T02:29:21;7.63;;;5.72;;
54454;SDS011;40364;52.270;10.546;2023-05-08T02:31:49;8.90;;;5.85;;
54454;SDS011;40364;52.270;10.546;2023-05-08T02:34:18;9.75;;;5.97;;
54454;SDS011;40364;52.270;10.546;2023-05-08T02:36:46;9.57;;;5.60;;
54454;SDS011;40364;52.270;10.546;2023-05-08T02:39:15;8.98;;;6.00;;
54454;SDS011;40364;52.270;10.546;2023-05-08T02:41:44;9.77;;;5.90;;
54454;SDS011;40364;52.270;10.546;2023-05-08T02:44:11;9.48;;;5.80;;
54454;SDS011;40364;52.270;10.546;2023-05-08T02:46:43;9.02;;;5.60;;
54454;SDS011;40364;52.270;10.546;2023-05-08T02:49:17;7.60;;;5.78;;
54454;SDS011;40364;52.270;10.546;2023-05-08T02:51:53;8.02;;;5.82;;
54454;SDS011;40364;52.270;10.546;2023-05-08T02:54:29;9.63;;;5.88;;
54454;SDS011;40364;52.270;10.546;2023-05-08T02:57:02;7.68;;;5.60;;
54454;SDS011;40364;52.270;10.546;2023-05-08T02:59:36;10.27;;;6.72;;
54454;SDS011;40364;52.270;10.546;2023-05-08T03:02:08;9.00;;;6.22;;
54454;SDS011;40364;52.270;10.546;2023-05-08T03:04:39;9.00;;;6.60;;
54454;SDS011;40364;52.270;10.546;2023-05-08T03:07:11;9.57;;;6.43;;
54454;SDS011;40364;52.270;10.546;2023-05-08T03:09:40;8.48;;;5.75;;
54454;SDS011;40364;52.270;10.546;2023-05-08T03:12:10;10.20;;;5.63;;
54454;SDS011;40364;52.270;10.546;2023-05-08T03:14:43;9.77;;;5.72;;
54454;SDS011;40364;52.270;10.546;2023-05-08T03:17:12;7.43;;;5.78;;
54454;SDS011;40364;52.270;10.546;2023-05-08T03:19:41;7.68;;;5.53;;
54454;SDS011;40364;52.270;10.546;2023-05-08T03:22:12;8.50;;;5.40;;
54454;SDS011;40364;52.270;10.546;2023-05-08T03:24:46;8.85;;;6.10;;
54454;SDS011;40364;52.270;10.546;2023-05-08T03:27:18;8.57;;;5.60;;
54454;SDS011;40364;52.270;10.546;2023-05-08T03:29:47;9.93;;;5.70;;
54454;SDS011;40364;52.270;10.546;2023-05-08T03:32:17;9.65;;;5.75;;
54454;SDS011;40364;52.270;10.546;2023-05-08T03:34:47;8.88;;;5.88;;
54454;SDS011;40364;52.270;10.546;2023-05-08T03:37:16;8.05;;;4.97;;
54454;SDS011;40364;52.270;10.546;2023-05-08T03:39:58;10.93;;;6.13;;
54454;SDS011;40364;52.270;10.546;2023-05-08T03:42:29;10.80;;;6.25;;
54454;SDS011;40364;52.270;10.546;2023-05-08T03:45:03;12.63;;;6.13;;
54454;SDS011;40364;52.270;10.546;2023-05-08T03:47:36;10.50;;;5.93;;
54454;SDS011;40364;52.270;10.546;2023-05-08T03:50:07;7.63;;;5.43;;
54454;SDS011;40364;52.270;10.546;2023-05-08T03:52:37;8.45;;;5.60;;
54454;SDS011;40364;52.270;10.546;2023-05-08T03:55:08;8.77;;;5.80;;
54454;SDS011;40364;52.270;10.546;2023-05-08T03:57:38;9.52;;;5.55;;
54454;SDS011;40364;52.270;10.546;2023-05-08T04:00:13;11.18;;;5.65;;
54454;SDS011;40364;52.270;10.546;2023-05-08T04:02:49;8.15;;;5.45;;
54454;SDS011;40364;52.270;10.546;2023-05-08T04:05:25;10.98;;;6.30;;
54454;SDS011;40364;52.270;10.546;2023-05-08T04:08:02;7.15;;;5.07;;
54454;SDS011;40364;52.270;10.546;2023-05-08T04:10:41;7.53;;;4.97;;
54454;SDS011;40364;52.270;10.546;2023-05-08T04:13:14;9.32;;;5.30;;
54454;SDS011;40364;52.270;10.546;2023-05-08T04:15:47;8.38;;;5.53;;
54454;SDS011;40364;52.270;10.546;2023-05-08T04:18:17;9.25;;;6.13;;
54454;SDS011;40364;52.270;10.546;2023-05-08T04:20:50;15.63;;;5.80;;
54454;SDS011;40364;52.270;10.546;2023-05-08T04:23:23;10.02;;;5.20;;
54454;SDS011;40364;52.270;10.546;2023-05-08T04:25:52;9.25;;;5.60;;
54454;SDS011;40364;52.270;10.546;2023-05-08T04:28:26;8.65;;;5.72;;
54454;SDS011;40364;52.270;10.546;2023-05-08T04:30:54;8.48;;;5.45;;
54454;SDS011;40364;52.270;10.546;2023-05-08T04:33:21;8.68;;;5.90;;
54454;SDS011;40364;52.270;10.546;2023-05-08T04:35:48;8.95;;;6.43;;
54454;SDS011;40364;52.270;10.546;2023-05-08T04:38:15;9.43;;;5.68;;
54454;SDS011;40364;52.270;10.546;2023-05-08T04:40:44;10.85;;;6.35;;
54454;SDS011;40364;52.270;10.546;2023-05-08T04:43:12;10.73;;;5.85;;
54454;SDS011;40364;52.270;10.546;2023-05-08T04:45:40;9.95;;;6.00;;
54454;SDS011;40364;52.270;10.546;2023-05-08T04:48:06;9.45;;;6.25;;
54454;SDS011;40364;52.270;10.546;2023-05-08T04:50:33;10.38;;;6.15;;
54454;SDS011;40364;52.270;10.546;2023-05-08T04:53:00;10.48;;;6.30;;
54454;SDS011;40364;52.270;10.546;2023-05-08T04:55:26;8.07;;;5.60;;
54454;SDS011;40364;52.270;10.546;2023-05-08T04:57:53;9.93;;;5.95;;
54454;SDS011;40364;52.270;10.546;2023-05-08T05:00:21;9.23;;;5.50;;
54454;SDS011;40364;52.270;10.546;2023-05-08T05:02:48;9.32;;;5.28;;
54454;SDS011;40364;52.270;10.546;2023-05-08T05:05:15;15.05;;;7.07;;
54454;SDS011;40364;52.270;10.546;2023-05-08T05:07:44;7.80;;;5.95;;
54454;SDS011;40364;52.270;10.546;2023-05-08T05:10:13;10.63;;;6.80;;
54454;SDS011;40364;52.270;10.546;2023-05-08T05:12:45;8.65;;;6.38;;
54454;SDS011;40364;52.270;10.546;2023-05-08T05:15:13;9.25;;;5.47;;
54454;SDS011;40364;52.270;10.546;2023-05-08T05:17:41;9.55;;;6.22;;
54454;SDS011;40364;52.270;10.546;2023-05-08T05:20:11;8.00;;;6.00;;
54454;SDS011;40364;52.270;10.546;2023-05-08T05:22:39;7.75;;;5.88;;
54454;SDS011;40364;52.270;10.546;2023-05-08T05:25:08;8.48;;;5.72;;
54454;SDS011;40364;52.270;10.546;2023-05-08T05:27:36;8.75;;;5.90;;
54454;SDS011;40364;52.270;10.546;2023-05-08T05:36:08;8.60;;;6.20;;
54454;SDS011;40364;52.270;10.546;2023-05-08T05:38:36;8.70;;;6.03;;
54454;SDS011;40364;52.270;10.546;2023-05-08T05:41:08;8.77;;;6.15;;
54454;SDS011;40364;52.270;10.546;2023-05-08T05:43:44;10.82;;;7.28;;
54454;SDS011;40364;52.270;10.546;2023-05-08T05:46:11;10.27;;;6.70;;
54454;SDS011;40364;52.270;10.546;2023-05-08T05:48:54;9.65;;;6.00;;
54454;SDS011;40364;52.270;10.546;2023-05-08T05:51:24;10.40;;;7.25;;
54454;SDS011;40364;52.270;10.546;2023-05-08T05:53:51;9.98;;;6.13;;
54454;SDS011;40364;52.270;10.546;2023-05-08T05:56:22;7.45;;;5.60;;
54454;SDS011;40364;52.270;10.546;2023-05-08T05:59:14;10.55;;;5.97;;
54454;SDS011;40364;52.270;10.546;2023-05-08T06:01:48;10.38;;;6.45;;
54454;SDS011;40364;52.270;10.546;2023-05-08T06:04:23;10.20;;;6.38;;
54454;SDS011;40364;52.270;10.546;2023-05-08T06:06:50;9.60;;;6.25;;
54454;SDS011;40364;52.270;10.546;2023-05-08T06:09:17;10.55;;;6.70;;
54454;SDS011;40364;52.270;10.546;2023-05-08T06:11:45;9.48;;;6.07;;
54454;SDS011;40364;52.270;10.546;2023-05-08T06:14:12;11.23;;;6.70;;
54454;SDS011;40364;52.270;10.546;2023-05-08T06:16:40;9.00;;;6.47;;
54454;SDS011;40364;52.270;10.546;2023-05-08T06:19:08;9.35;;;5.65;;
54454;SDS011;40364;52.270;10.546;2023-05-08T06:21:36;10.63;;;5.65;;
54454;SDS011;40364;52.270;10.546;2023-05-08T06:24:04;8.48;;;5.55;;
54454;SDS011;40364;52.270;10.546;2023-05-08T06:26:31;10.63;;;7.07;;
54454;SDS011;40364;52.270;10.546;2023-05-08T06:28:58;8.80;;;6.28;;
54454;SDS011;40364;52.270;10.546;2023-05-08T06:31:27;9.57;;;5.88;;
54454;SDS011;40364;52.270;10.546;2023-05-08T06:34:04;8.82;;;5.60;;
54454;SDS011;40364;52.270;10.546;2023-05-08T06:36:39;9.73;;;6.10;;
54454;SDS011;40364;52.270;10.546;2023-05-08T06:39:27;9.55;;;6.15;;
54454;SDS011;40364;52.270;10.546;2023-05-08T06:42:05;10.35;;;6.30;;
54454;SDS011;40364;52.270;10.546;2023-05-08T06:44:54;10.95;;;5.70;;
54454;SDS011;40364;52.270;10.546;2023-05-08T06:47:26;8.88;;;6.03;;
54454;SDS011;40364;52.270;10.546;2023-05-08T06:50:00;7.68;;;5.70;;
54454;SDS011;40364;52.270;10.546;2023-05-08T06:55:21;13.65;;;6.32;;
54454;SDS011;40364;52.270;10.546;2023-05-08T06:57:50;10.15;;;5.70;;
54454;SDS011;40364;52.270;10.546;2023-05-08T07:00:19;11.05;;;6.70;;
54454;SDS011;40364;52.270;10.546;2023-05-08T07:02:46;9.73;;;6.22;;
54454;SDS011;40364;52.270;10.546;2023-05-08T07:05:13;9.10;;;6.45;;
54454;SDS011;40364;52.270;10.546;2023-05-08T07:07:41;8.02;;;5.53;;
54454;SDS011;40364;52.270;10.546;2023-05-08T07:10:08;8.77;;;5.93;;
54454;SDS011;40364;52.270;10.546;2023-05-08T07:12:35;7.97;;;6.00;;
54454;SDS011;40364;52.270;10.546;2023-05-08T07:15:08;8.13;;;6.05;;
54454;SDS011;40364;52.270;10.546;2023-05-08T07:17:35;8.48;;;5.85;;
54454;SDS011;40364;52.270;10.546;2023-05-08T07:20:02;9.05;;;5.88;;
54454;SDS011;40364;52.270;10.546;2023-05-08T07:22:29;7.82;;;5.68;;
54454;SDS011;40364;52.270;10.546;2023-05-08T07:24:57;9.10;;;6.15;;
54454;SDS011;40364;52.270;10.546;2023-05-08T07:27:23;12.70;;;6.38;;
54454;SDS011;40364;52.270;10.546;2023-05-08T07:29:53;8.52;;;5.95;;
54454;SDS011;40364;52.270;10.546;2023-05-08T07:32:31;9.13;;;6.03;;
54454;SDS011;40364;52.270;10.546;2023-05-08T07:34:58;9.85;;;6.18;;
54454;SDS011;40364;52.270;10.546;2023-05-08T07:37:30;8.18;;;5.97;;
54454;SDS011;40364;52.270;10.546;2023-05-08T07:40:01;8.48;;;6.78;;
54454;SDS011;40364;52.270;10.546;2023-05-08T07:42:30;10.73;;;6.90;;
54454;SDS011;40364;52.270;10.546;2023-05-08T07:44:56;9.77;;;6.63;;
54454;SDS011;40364;52.270;10.546;2023-05-08T07:47:23;10.43;;;6.38;;
54454;SDS011;40364;52.270;10.546;2023-05-08T07:49:49;8.82;;;6.05;;
54454;SDS011;40364;52.270;10.546;2023-05-08T07:52:18;10.75;;;7.00;;
54454;SDS011;40364;52.270;10.546;2023-05-08T07:54:45;9.60;;;6.43;;
54454;SDS011;40364;52.270;10.546;2023-05-08T07:57:13;10.85;;;5.90;;
54454;SDS011;40364;52.270;10.546;2023-05-08T07:59:40;8.55;;;6.25;;
54454;SDS011;40364;52.270;10.546;2023-05-08T08:02:07;8.00;;;6.32;;
54454;SDS011;40364;52.270;10.546;2023-05-08T08:04:33;8.90;;;6.22;;
54454;SDS011;40364;52.270;10.546;2023-05-08T08:07:09;9.90;;;6.47;;
54454;SDS011;40364;52.270;10.546;2023-05-08T08:09:36;8.63;;;6.32;;
54454;SDS011;40364;52.270;10.546;2023-05-08T08:12:02;9.07;;;6.60;;
54454;SDS011;40364;52.270;10.546;2023-05-08T08:14:31;13.57;;;7.60;;
54454;SDS011;40364;52.270;10.546;2023-05-08T08:16:57;8.98;;;6.72;;
54454;SDS011;40364;52.270;10.546;2023-05-08T08:19:24;7.85;;;6.03;;
54454;SDS011;40364;52.270;10.546;2023-05-08T08:21:50;8.68;;;6.30;;
54454;SDS011;40364;52.270;10.546;2023-05-08T08:24:17;8.07;;;5.65;;
54454;SDS011;40364;52.270;10.546;2023-05-08T08:26:43;8.48;;;5.70;;
54454;SDS011;40364;52.270;10.546;2023-05-08T08:29:10;8.35;;;6.20;;
54454;SDS011;40364;52.270;10.546;2023-05-08T08:31:40;9.85;;;6.30;;
54454;SDS011;40364;52.270;10.546;2023-05-08T08:34:07;8.40;;;5.80;;
54454;SDS011;40364;52.270;10.546;2023-05-08T08:36:33;8.73;;;6.20;;
54454;SDS011;40364;52.270;10.546;2023-05-08T08:39:03;7.70;;;6.25;;
54454;SDS011;40364;52.270;10.546;2023-05-08T08:41:29;9.73;;;4.97;;
54454;SDS011;40364;52.270;10.546;2023-05-08T08:43:56;6.32;;;4.95;;
54454;SDS011;40364;52.270;10.546;2023-05-08T08:46:23;5.85;;;4.35;;
54454;SDS011;40364;52.270;10.546;2023-05-08T08:48:54;7.18;;;4.88;;
54454;SDS011;40364;52.270;10.546;2023-05-08T08:51:23;5.65;;;4.32;;
54454;SDS011;40364;52.270;10.546;2023-05-08T08:54:03;6.20;;;3.65;;
54454;SDS011;40364;52.270;10.546;2023-05-08T08:56:35;6.97;;;3.83;;
54454;SDS011;40364;52.270;10.546;2023-05-08T08:59:03;5.80;;;4.10;;
54454;SDS011;40364;52.270;10.546;2023-05-08T09:01:32;5.43;;;3.63;;
54454;SDS011;40364;52.270;10.546;2023-05-08T09:04:02;5.53;;;3.67;;
54454;SDS011;40364;52.270;10.546;2023-05-08T09:06:29;5.28;;;3.97;;
54454;SDS011;40364;52.270;10.546;2023-05-08T09:09:00;5.10;;;3.72;;
54454;SDS011;40364;52.270;10.546;2023-05-08T09:11:27;5.15;;;3.90;;
54454;SDS011;40364;52.270;10.546;2023-05-08T09:13:57;6.13;;;4.72;;
54454;SDS011;40364;52.270;10.546;2023-05-08T09:16:24;5.90;;;4.88;;
54454;SDS011;40364;52.270;10.546;2023-05-08T09:18:53;7.30;;;5.13;;
54454;SDS011;40364;52.270;10.546;2023-05-08T09:21:21;5.97;;;4.55;;
54454;SDS011;40364;52.270;10.546;2023-05-08T09:23:54;6.78;;;4.70;;
54454;SDS011;40364;52.270;10.546;2023-05-08T09:26:25;5.50;;;4.68;;
54454;SDS011;40364;52.270;10.546;2023-05-08T09:29:00;7.10;;;4.53;;
54454;SDS011;40364;52.270;10.546;2023-05-08T09:31:33;5.70;;;4.32;;
54454;SDS011;40364;52.270;10.546;2023-05-08T09:34:02;6.00;;;4.20;;
54454;SDS011;40364;52.270;10.546;2023-05-08T09:36:39;8.48;;;4.15;;
54454;SDS011;40364;52.270;10.546;2023-05-08T09:39:27;8.77;;;5.63;;
54454;SDS011;40364;52.270;10.546;2023-05-08T09:41:59;6.18;;;4.97;;
54454;SDS011;40364;52.270;10.546;2023-05-08T09:44:40;5.88;;;4.35;;
54454;SDS011;40364;52.270;10.546;2023-05-08T09:47:12;6.10;;;4.60;;
54454;SDS011;40364;52.270;10.546;2023-05-08T09:50:04;6.40;;;3.95;;
54454;SDS011;40364;52.270;10.546;2023-05-08T09:52:44;7.68;;;3.78;;
54454;SDS011;40364;52.270;10.546;2023-05-08T09:55:26;5.35;;;3.97;;
54454;SDS011;40364;52.270;10.546;2023-05-08T09:57:54;8.55;;;3.88;;
54454;SDS011;40364;52.270;10.546;2023-05-08T10:00:24;9.15;;;4.30;;
54454;SDS011;40364;52.270;10.546;2023-05-08T10:02:55;4.97;;;3.40;;
54454;SDS011;40364;52.270;10.546;2023-05-08T10:05:23;5.68;;;3.92;;
54454;SDS011;40364;52.270;10.546;2023-05-08T10:10:45;5.07;;;3.78;;
54454;SDS011;40364;52.270;10.546;2023-05-08T10:13:12;7.55;;;3.90;;
54454;SDS011;40364;52.270;10.546;2023-05-08T10:15:40;6.32;;;4.20;;
54454;SDS011;40364;52.270;10.546;2023-05-08T10:18:07;5.05;;;3.75;;
54454;SDS011;40364;52.270;10.546;2023-05-08T10:20:38;4.60;;;3.67;;
54454;SDS011;40364;52.270;10.546;2023-05-08T10:23:06;4.72;;;3.88;;
54454;SDS011;40364;52.270;10.546;2023-05-08T10:25:45;7.22;;;4.10;;
54454;SDS011;40364;52.270;10.546;2023-05-08T10:28:15;6.82;;;4.43;;
54454;SDS011;40364;52.270;10.546;2023-05-08T10:30:47;4.90;;;3.28;;
54454;SDS011;40364;52.270;10.546;2023-05-08T10:33:16;5.82;;;4.25;;
54454;SDS011;40364;52.270;10.546;2023-05-08T10:35:45;4.40;;;3.60;;
54454;SDS011;40364;52.270;10.546;2023-05-08T10:38:13;6.32;;;4.18;;
54454;SDS011;40364;52.270;10.546;2023-05-08T10:40:42;6.38;;;5.25;;
54454;SDS011;40364;52.270;10.546;2023-05-08T10:43:10;5.55;;;4.43;;
54454;SDS011;40364;52.270;10.546;2023-05-08T10:45:37;7.15;;;5.47;;
54454;SDS011;40364;52.270;10.546;2023-05-08T10:48:07;7.22;;;4.47;;
54454;SDS011;40364;52.270;10.546;2023-05-08T10:50:47;5.95;;;4.88;;
54454;SDS011;40364;52.270;10.546;2023-05-08T10:53:28;5.93;;;5.05;;
54454;SDS011;40364;52.270;10.546;2023-05-08T10:56:05;7.30;;;5.65;;
54454;SDS011;40364;52.270;10.546;2023-05-08T10:58:34;6.13;;;4.88;;
54454;SDS011;40364;52.270;10.546;2023-05-08T11:01:12;6.45;;;4.75;;
54454;SDS011;40364;52.270;10.546;2023-05-08T11:03:41;6.38;;;3.65;;
54454;SDS011;40364;52.270;10.546;2023-05-08T11:06:09;6.05;;;4.78;;
54454;SDS011;40364;52.270;10.546;2023-05-08T11:08:42;5.25;;;4.63;;
54454;SDS011;40364;52.270;10.546;2023-05-08T11:11:19;7.72;;;4.25;;
54454;SDS011;40364;52.270;10.546;2023-05-08T11:13:52;7.78;;;4.40;;
54454;SDS011;40364;52.270;10.546;2023-05-08T11:19:30;8.25;;;5.03;;
54454;SDS011;40364;52.270;10.546;2023-05-08T11:24:58;7.13;;;4.75;;
54454;SDS011;40364;52.270;10.546;2023-05-08T11:27:34;7.85;;;4.45;;
54454;SDS011;40364;52.270;10.546;2023-05-08T11:30:21;5.78;;;4.65;;
54454;SDS011;40364;52.270;10.546;2023-05-08T11:32:56;5.75;;;4.47;;
54454;SDS011;40364;52.270;10.546;2023-05-08T11:35:40;6.65;;;4.40;;
54454;SDS011;40364;52.270;10.546;2023-05-08T11:38:13;6.13;;;4.55;;
54454;SDS011;40364;52.270;10.546;2023-05-08T11:40:44;10.93;;;4.55;;
54454;SDS011;40364;52.270;10.546;2023-05-08T11:43:23;4.78;;;3.67;;
54454;SDS011;40364;52.270;10.546;2023-05-08T11:46:01;6.53;;;3.92;;
54454;SDS011;40364;52.270;10.546;2023-05-08T11:48:34;15.38;;;4.05;;
54454;SDS011;40364;52.270;10.546;2023-05-08T11:51:02;7.78;;;4.03;;
54454;SDS011;40364;52.270;10.546;2023-05-08T11:53:30;5.05;;;4.50;;
54454;SDS011;40364;52.270;10.546;2023-05-08T11:56:00;7.70;;;4.18;;
54454;SDS011;40364;52.270;10.546;2023-05-08T11:58:30;6.30;;;3.70;;
54454;SDS011;40364;52.270;10.546;2023-05-08T12:00:57;4.82;;;3.45;;
54454;SDS011;40364;52.270;10.546;2023-05-08T12:03:24;5.45;;;4.13;;
54454;SDS011;40364;52.270;10.546;2023-05-08T12:05:54;5.97;;;4.32;;
54454;SDS011;40364;52.270;10.546;2023-05-08T12:08:22;5.32;;;4.20;;
54454;SDS011;40364;52.270;10.546;2023-05-08T12:10:50;5.60;;;4.25;;
54454;SDS011;40364;52.270;10.546;2023-05-08T12:13:18;4.65;;;3.60;;
54454;SDS011;40364;52.270;10.546;2023-05-08T12:15:47;7.00;;;3.85;;
54454;SDS011;40364;52.270;10.546;2023-05-08T12:18:21;9.02;;;4.82;;
54454;SDS011;40364;52.270;10.546;2023-05-08T12:20:50;5.00;;;3.92;;
54454;SDS011;40364;52.270;10.546;2023-05-08T12:23:17;6.68;;;3.85;;
54454;SDS011;40364;52.270;10.546;2023-05-08T12:25:44;3.83;;;3.38;;
54454;SDS011;40364;52.270;10.546;2023-05-08T12:28:11;4.60;;;4.15;;
54454;SDS011;40364;52.270;10.546;2023-05-08T12:30:37;5.57;;;3.00;;
54454;SDS011;40364;52.270;10.546;2023-05-08T12:33:05;7.53;;;3.60;;
54454;SDS011;40364;52.270;10.546;2023-05-08T12:35:32;3.60;;;3.30;;
54454;SDS011;40364;52.270;10.546;2023-05-08T12:37:59;5.25;;;3.10;;
54454;SDS011;40364;52.270;10.546;2023-05-08T12:40:28;4.47;;;3.10;;
54454;SDS011;40364;52.270;10.546;2023-05-08T12:42:56;4.63;;;3.17;;
54454;SDS011;40364;52.270;10.546;2023-05-08T12:45:26;4.80;;;3.30;;
54454;SDS011;40364;52.270;10.546;2023-05-08T12:47:57;5.32;;;2.78;;
54454;SDS011;40364;52.270;10.546;2023-05-08T12:50:25;3.75;;;2.85;;
54454;SDS011;40364;52.270;10.546;2023-05-08T12:52:54;3.55;;;2.88;;
54454;SDS011;40364;52.270;10.546;2023-05-08T12:55:28;3.83;;;2.90;;
54454;SDS011;40364;52.270;10.546;2023-05-08T12:58:00;4.15;;;2.95;;
54454;SDS011;40364;52.270;10.546;2023-05-08T13:00:37;4.85;;;3.47;;
54454;SDS011;40364;52.270;10.546;2023-05-08T13:03:05;2.95;;;2.58;;
54454;SDS011;40364;52.270;10.546;2023-05-08T13:05:34;3.38;;;2.60;;
54454;SDS011;40364;52.270;10.546;2023-05-08T13:08:02;3.63;;;2.38;;
54454;SDS011;40364;52.270;10.546;2023-05-08T13:10:46;4.45;;;2.35;;
54454;SDS011;40364;52.270;10.546;2023-05-08T13:13:14;3.30;;;2.80;;
54454;SDS011;40364;52.270;10.546;2023-05-08T13:15:42;4.57;;;3.10;;
54454;SDS011;40364;52.270;10.546;2023-05-08T13:18:09;2.75;;;2.33;;
54454;SDS011;40364;52.270;10.546;2023-05-08T13:20:37;4.15;;;2.80;;
54454;SDS011;40364;52.270;10.546;2023-05-08T13:23:04;4.07;;;2.75;;
54454;SDS011;40364;52.270;10.546;2023-05-08T13:25:31;4.72;;;2.80;;
54454;SDS011;40364;52.270;10.546;2023-05-08T13:27:59;4.47;;;3.20;;
54454;SDS011;40364;52.270;10.546;2023-05-08T13:30:25;2.90;;;2.58;;
54454;SDS011;40364;52.270;10.546;2023-05-08T13:32:52;2.45;;;2.25;;
54454;SDS011;40364;52.270;10.546;2023-05-08T13:35:19;2.50;;;2.30;;
54454;SDS011;40364;52.270;10.546;2023-05-08T13:37:47;3.22;;;2.58;;
54454;SDS011;40364;52.270;10.546;2023-05-08T13:40:15;2.90;;;2.13;;
54454;SDS011;40364;52.270;10.546;2023-05-08T13:42:42;4.35;;;2.20;;
54454;SDS011;40364;52.270;10.546;2023-05-08T13:45:09;2.90;;;1.90;;
54454;SDS011;40364;52.270;10.546;2023-05-08T13:47:38;2.42;;;1.98;;
54454;SDS011;40364;52.270;10.546;2023-05-08T13:50:05;2.15;;;1.95;;
54454;SDS011;40364;52.270;10.546;2023-05-08T13:52:33;2.85;;;2.50;;
54454;SDS011;40364;52.270;10.546;2023-05-08T13:55:02;3.45;;;2.45;;
54454;SDS011;40364;52.270;10.546;2023-05-08T13:57:31;2.83;;;2.05;;
54454;SDS011;40364;52.270;10.546;2023-05-08T13:59:57;2.72;;;2.15;;
54454;SDS011;40364;52.270;10.546;2023-05-08T14:02:25;3.28;;;2.33;;
54454;SDS011;40364;52.270;10.546;2023-05-08T14:04:51;1.75;;;1.65;;
54454;SDS011;40364;52.270;10.546;2023-05-08T14:07:18;4.65;;;1.90;;
54454;SDS011;40364;52.270;10.546;2023-05-08T14:09:45;2.25;;;1.90;;
54454;SDS011;40364;52.270;10.546;2023-05-08T14:12:13;2.22;;;2.03;;
54454;SDS011;40364;52.270;10.546;2023-05-08T14:14:40;2.60;;;2.08;;
54454;SDS011;40364;52.270;10.546;2023-05-08T14:17:06;5.55;;;2.28;;
54454;SDS011;40364;52.270;10.546;2023-05-08T14:19:33;4.45;;;2.17;;
54454;SDS011;40364;52.270;10.546;2023-05-08T14:22:00;2.38;;;2.15;;
54454;SDS011;40364;52.270;10.546;2023-05-08T14:24:26;4.03;;;2.30;;
54454;SDS011;40364;52.270;10.546;2023-05-08T14:26:53;6.72;;;2.22;;
54454;SDS011;40364;52.270;10.546;2023-05-08T14:29:21;2.40;;;2.20;;
54454;SDS011;40364;52.270;10.546;2023-05-08T14:31:48;6.75;;;2.60;;
54454;SDS011;40364;52.270;10.546;2023-05-08T14:34:14;3.35;;;2.47;;
54454;SDS011;40364;52.270;10.546;2023-05-08T14:36:41;4.75;;;2.13;;
54454;SDS011;40364;52.270;10.546;2023-05-08T14:39:07;4.18;;;1.95;;
54454;SDS011;40364;52.270;10.546;2023-05-08T14:41:34;3.95;;;1.90;;
54454;SDS011;40364;52.270;10.546;2023-05-08T14:44:02;3.13;;;1.90;;
54454;SDS011;40364;52.270;10.546;2023-05-08T14:46:30;2.00;;;1.80;;
54454;SDS011;40364;52.270;10.546;2023-05-08T14:48:57;3.22;;;1.80;;
54454;SDS011;40364;52.270;10.546;2023-05-08T14:51:23;2.15;;;1.90;;
54454;SDS011;40364;52.270;10.546;2023-05-08T14:53:50;7.13;;;2.33;;
54454;SDS011;40364;52.270;10.546;2023-05-08T14:56:17;2.85;;;2.40;;
54454;SDS011;40364;52.270;10.546;2023-05-08T14:58:43;2.97;;;2.35;;
54454;SDS011;40364;52.270;10.546;2023-05-08T15:01:10;3.25;;;2.20;;
54454;SDS011;40364;52.270;10.546;2023-05-08T15:03:38;3.88;;;2.08;;
54454;SDS011;40364;52.270;10.546;2023-05-08T15:06:05;2.40;;;2.20;;
54454;SDS011;40364;52.270;10.546;2023-05-08T15:08:32;2.60;;;2.13;;